createdAt,value
2023-01-17T00:42:03.596Z,98982.15
2023-01-17T00:44:55.114Z,98975.77
2023-01-17T00:47:41.480Z,98972.05
2023-01-17T00:50:50.390Z,98968.02
2023-01-17T00:54:30.452Z,98966.34
2023-01-17T00:57:21.762Z,98964.73
2023-01-17T01:00:10.191Z,98963.15
2023-01-17T01:02:59.715Z,98960.28
2023-01-17T01:05:58.582Z,98957.67
2023-01-17T01:08:58.607Z,98954.80
2023-01-17T01:11:51.279Z,98951.39
2023-01-17T01:15:00.542Z,98953.86
2023-01-17T01:18:06.699Z,98948.21
2023-01-17T01:21:23.124Z,98940.98
2023-01-17T01:24:11.574Z,98943.85
2023-01-17T01:27:07.564Z,98936.86
2023-01-17T01:30:15.957Z,98932.41
2023-01-17T01:33:18.439Z,98926.08
2023-01-17T01:36:05.723Z,98926.30
2023-01-17T01:38:35.523Z,98927.70
2023-01-17T01:41:08.423Z,98926.83
2023-01-17T01:43:48.691Z,98920.53
2023-01-17T01:47:05.725Z,98921.02
2023-01-17T01:49:48.832Z,98919.41
2023-01-17T01:52:44.041Z,98918.76
2023-01-17T01:55:28.776Z,98917.41
2023-01-17T01:58:22.605Z,98910.07
2023-01-17T02:01:06.468Z,98909.31
2023-01-17T02:03:51.241Z,98908.73
2023-01-17T02:06:25.130Z,98906.51
2023-01-17T02:09:12.104Z,98906.43
2023-01-17T02:11:49.587Z,98902.19
2023-01-17T02:14:37.125Z,98901.66
2023-01-17T02:17:46.457Z,98895.83
2023-01-17T02:20:41.265Z,98900.11
2023-01-17T02:23:20.015Z,98896.73
2023-01-17T02:26:54.791Z,98891.83
2023-01-17T02:30:16.316Z,98887.34
2023-01-17T02:33:06.608Z,98883.26
2023-01-17T02:36:11.073Z,98877.39
2023-01-17T02:39:09.677Z,98875.25
2023-01-17T02:41:52.084Z,98869.88
2023-01-17T02:44:48.834Z,98863.60
2023-01-17T02:47:21.507Z,98861.02
2023-01-17T02:49:59.718Z,98861.19
2023-01-17T02:53:22.478Z,98855.72
2023-01-17T02:56:25.118Z,98850.84
2023-01-17T02:59:35.601Z,98851.39
2023-01-17T03:02:38.503Z,98843.85
2023-01-17T03:06:08.129Z,98834.92
2023-01-17T03:08:49.213Z,98834.97
2023-01-17T03:11:16.968Z,98825.98
2023-01-17T03:13:57.365Z,98822.14
2023-01-17T03:16:37.579Z,98821.00
2023-01-17T03:19:09.913Z,98820.14
2023-01-17T03:21:51.421Z,98823.00
2023-01-17T03:24:22.301Z,98816.52
2023-01-17T03:26:52.031Z,98819.21
2023-01-17T03:29:25.100Z,98815.77
2023-01-17T03:32:17.195Z,98816.16
2023-01-17T03:35:00.740Z,98814.30
2023-01-17T03:37:36.759Z,98815.42
2023-01-17T03:40:55.375Z,98808.60
2023-01-17T03:43:41.567Z,98806.46
2023-01-17T03:46:19.735Z,98804.73
2023-01-17T03:48:53.081Z,98796.97
2023-01-17T03:51:43.466Z,98800.80
2023-01-17T03:54:10.688Z,98796.98
2023-01-17T03:56:40.399Z,98798.48
2023-01-17T03:59:14.423Z,98795.97
2023-01-17T04:02:15.506Z,98799.91
2023-01-17T04:05:02.803Z,98793.26
2023-01-17T04:07:41.436Z,98792.56
2023-01-17T04:10:12.981Z,98792.88
2023-01-17T10:16:53.241Z,98661.17
2023-01-17T10:19:43.806Z,98662.02
2023-01-17T10:22:58.861Z,98661.47
2023-01-17T10:25:57.261Z,98663.13
2023-01-17T10:28:33.532Z,98663.05
2023-01-17T10:31:21.032Z,98662.56
2023-01-17T10:33:53.183Z,98661.76
2023-01-17T10:36:23.832Z,98657.31
2023-01-17T10:38:58.284Z,98652.98
2023-01-17T10:41:35.230Z,98652.41
2023-01-17T10:44:48.137Z,98650.09
2023-01-17T10:47:22.360Z,98646.27
2023-01-17T10:49:53.981Z,98645.45
2023-01-17T10:52:45.763Z,98640.14
2023-01-17T10:55:40.504Z,98638.69
2023-01-17T10:58:15.633Z,98639.66
2023-01-17T11:00:52.258Z,98635.93
2023-01-17T11:03:24.091Z,98633.02
2023-01-17T11:06:15.009Z,98625.07
2023-01-17T11:08:59.505Z,98624.55
2023-01-17T11:11:31.155Z,98620.04
2023-01-17T11:14:07.917Z,98617.16
2023-01-17T11:16:55.236Z,98616.77
2023-01-17T11:19:36.062Z,98617.89
2023-01-17T11:22:05.206Z,98611.37
2023-01-17T11:24:36.512Z,98609.47
2023-01-17T11:27:44.788Z,98606.44
2023-01-17T11:30:21.519Z,98605.57
2023-01-17T11:33:04.383Z,98606.38
2023-01-17T11:35:32.516Z,98605.80
2023-01-17T11:38:40.022Z,98605.80
2023-01-17T11:41:20.575Z,98598.94
2023-01-17T11:43:55.413Z,98591.44
2023-01-17T11:46:25.583Z,98595.52
2023-01-17T11:49:00.994Z,98592.20
2023-01-17T11:51:33.970Z,98593.41
2023-01-17T11:54:28.992Z,98593.75
2023-01-17T11:57:02.671Z,98588.72
2023-01-17T11:59:33.629Z,98582.10
2023-01-17T12:02:32.099Z,98576.30
2023-01-17T16:13:26.113Z,98558.78
2023-01-17T16:15:53.275Z,98557.11
2023-01-17T16:18:29.421Z,98565.24
2023-01-17T16:21:00.856Z,98565.73
2023-01-17T16:23:28.646Z,98560.77
2023-01-17T16:25:56.676Z,98555.73
2023-01-17T16:28:27.443Z,98555.45
2023-01-17T16:30:57.464Z,98559.39
2023-01-17T16:33:24.597Z,98568.19
2023-01-17T16:35:53.464Z,98575.61
2023-01-17T16:38:20.758Z,98570.02
2023-01-17T16:40:48.322Z,98566.27
2023-01-17T16:43:17.303Z,98562.88
2023-01-17T16:45:46.931Z,98566.00
2023-01-17T16:48:14.374Z,98570.54
2023-01-17T16:50:48.445Z,98571.71
2023-01-17T16:53:16.560Z,98581.11
2023-01-17T16:55:46.583Z,98586.90
2023-01-17T16:58:15.575Z,98594.21
2023-01-17T17:00:43.129Z,98595.38
2023-01-17T17:03:20.731Z,98599.41
2023-01-17T17:05:58.423Z,98590.66
2023-01-17T17:08:25.897Z,98591.20
2023-01-17T17:10:53.236Z,98589.84
2023-01-17T17:13:20.592Z,98589.70
2023-01-17T17:15:48.176Z,98597.15
2023-01-17T17:18:16.757Z,98598.35
2023-01-17T17:20:44.096Z,98599.80
2023-01-17T17:23:11.344Z,98604.85
2023-01-17T17:25:39.001Z,98614.23
2023-01-17T17:28:08.921Z,98609.56
2023-01-17T17:30:36.583Z,98604.03
2023-01-17T17:33:06.607Z,98612.58
2023-01-17T17:35:42.967Z,98613.87
2023-01-17T17:38:12.473Z,98611.14
2023-01-17T17:40:39.623Z,98605.11
2023-01-17T17:43:06.993Z,98607.62
2023-01-17T17:45:34.127Z,98606.16
2023-01-17T17:48:01.289Z,98610.14
2023-01-17T17:50:28.633Z,98603.42
2023-01-17T17:52:55.685Z,98603.25
2023-01-17T17:55:23.351Z,98606.48
2023-01-17T17:57:53.931Z,98605.41
2023-01-17T18:00:23.379Z,98608.09
2023-01-17T18:02:50.632Z,98611.84
2023-01-17T18:05:17.887Z,98618.02
2023-01-17T18:07:45.144Z,98623.70
2023-01-17T18:10:12.596Z,98629.48
2023-01-17T18:12:39.849Z,98635.86
2023-01-17T18:15:07.929Z,98642.33
2023-01-17T18:17:35.517Z,98638.87
2023-01-17T18:20:02.570Z,98645.92
2023-01-17T18:22:29.819Z,98641.45
2023-01-17T18:25:00.129Z,98642.36
2023-01-17T18:27:27.599Z,98649.70
2023-01-17T18:29:58.702Z,98650.30
2023-01-17T18:32:26.287Z,98654.17
2023-01-17T18:34:53.768Z,98655.47
2023-01-17T18:37:22.804Z,98667.78
2023-01-17T18:39:52.504Z,98673.70
2023-01-17T18:42:21.769Z,98671.45
2023-01-17T18:44:49.704Z,98674.92
2023-01-17T18:47:16.742Z,98669.25
2023-01-17T18:49:44.079Z,98671.10
2023-01-17T18:52:12.280Z,98677.21
2023-01-17T18:54:40.776Z,98678.09
2023-01-17T18:57:08.139Z,98684.48
2023-01-17T18:59:35.546Z,98694.38
2023-01-17T19:02:02.902Z,98697.60
2023-01-17T19:04:34.282Z,98702.50
2023-01-17T19:07:01.741Z,98702.75
2023-01-17T19:09:28.788Z,98697.56
2023-01-17T19:11:57.270Z,98700.61
2023-01-17T19:14:25.661Z,98703.73
2023-01-17T19:16:54.069Z,98700.95
2023-01-17T19:19:21.606Z,98710.44
2023-01-17T19:21:51.720Z,98720.71
2023-01-17T19:24:18.978Z,98727.30
2023-01-17T19:26:51.452Z,98731.83
2023-01-17T19:29:31.705Z,98730.80
2023-01-17T19:31:59.184Z,98730.29
2023-01-17T19:34:26.556Z,98731.21
2023-01-17T19:36:56.991Z,98740.63
2023-01-17T19:39:27.270Z,98738.42
2023-01-17T19:41:55.242Z,98737.30
2023-01-17T19:44:27.723Z,98729.52
2023-01-17T19:46:56.709Z,98722.32
